Time;durP1;ratioP1;P1;durP2;ratioP2;P2;SDS_P1;SDS_P2;PMS_P1;PMS_P2;Temp;Humidity;BMP_temperature;BMP_pressure;BME280_temperature;BME280_humidity;BME280_pressure;Samples;Min_cycle;Max_cycle;Signal;HPM_P1;HPM_P2
2022/07/23 00:01:18;;;;;;;10.13;4.60;;;15.50;99.90;;;;;;5096101;28;20321;-73
2022/07/23 00:03:43;;;;;;;10.40;4.50;;;15.40;99.90;;;;;;5096129;28;20047;-73
2022/07/23 00:06:09;;;;;;;6.13;4.30;;;15.40;99.90;;;;;;5095620;28;20132;-73
2022/07/23 00:08:35;;;;;;;8.70;4.73;;;15.40;99.90;;;;;;5095241;28;20475;-73
2022/07/23 00:11:01;;;;;;;6.57;4.50;;;15.30;99.90;;;;;;5095246;28;20047;-73
2022/07/23 00:13:27;;;;;;;9.80;4.50;;;;;;;;;;5095197;28;20048;-73
2022/07/23 00:15:53;;;;;;;8.23;4.70;;;15.30;99.90;;;;;;5094487;28;20052;-73
2022/07/23 00:18:19;;;;;;;8.80;4.50;;;15.20;99.90;;;;;;5095369;28;20135;-73
2022/07/23 00:20:45;;;;;;;6.33;4.73;;;15.30;99.90;;;;;;5095072;28;20047;-73
2022/07/23 00:23:11;;;;;;;7.90;4.50;;;15.30;99.90;;;;;;5093989;28;20055;-73
2022/07/23 00:25:36;;;;;;;7.10;5.30;;;15.40;99.90;;;;;;5094868;28;20128;-73
2022/07/23 00:28:03;;;;;;;7.70;4.90;;;15.30;99.90;;;;;;5094744;28;20048;-73
2022/07/23 00:30:31;;;;;;;7.47;4.80;;;15.30;99.90;;;;;;5094802;28;20048;-72
2022/07/23 00:33:03;;;;;;;9.90;5.40;;;15.20;99.90;;;;;;5094858;28;20764;-72
2022/07/23 00:35:31;;;;;;;6.93;4.97;;;15.20;99.90;;;;;;5095526;28;20278;-72
2022/07/23 00:37:58;;;;;;;9.00;4.73;;;15.20;99.90;;;;;;5094698;28;20324;-72
2022/07/23 00:40:25;;;;;;;8.17;5.10;;;15.20;99.90;;;;;;5095463;28;20377;-72
2022/07/23 00:42:50;;;;;;;7.73;4.37;;;15.20;99.90;;;;;;5094567;28;20386;-72
2022/07/23 00:45:16;;;;;;;8.23;5.13;;;15.10;99.90;;;;;;5094817;28;20345;-72
2022/07/23 00:47:42;;;;;;;9.90;4.60;;;15.10;99.90;;;;;;5094506;28;20055;-72
2022/07/23 00:50:09;;;;;;;8.13;4.70;;;15.00;99.90;;;;;;5094502;28;20294;-72
2022/07/23 00:52:36;;;;;;;6.50;4.47;;;15.10;99.90;;;;;;5094480;28;20080;-73
2022/07/23 00:55:02;;;;;;;8.80;4.50;;;15.00;99.90;;;;;;5093659;28;20351;-72
2022/07/23 00:57:28;;;;;;;7.40;5.13;;;15.00;99.90;;;;;;5094309;28;20314;-72
2022/07/23 00:59:54;;;;;;;6.90;4.30;;;15.00;99.90;;;;;;5094368;28;20282;-72
2022/07/23 01:02:20;;;;;;;8.40;4.30;;;15.10;99.90;;;;;;5094278;28;20082;-72
2022/07/23 01:04:46;;;;;;;8.83;4.50;;;15.00;99.90;;;;;;5094226;28;20101;-72
2022/07/23 01:07:11;;;;;;;6.57;4.50;;;15.00;99.90;;;;;;5094218;28;20093;-72
2022/07/23 01:09:37;;;;;;;6.37;3.87;;;15.00;99.90;;;;;;5094574;28;20533;-72
2022/07/23 01:12:04;;;;;;;9.03;4.00;;;15.00;99.90;;;;;;5094163;28;20052;-72
2022/07/23 01:14:29;;;;;;;7.20;4.50;;;15.00;99.90;;;;;;5094071;28;20274;-74
2022/07/23 01:16:55;;;;;;;7.60;4.70;;;14.90;99.90;;;;;;5094340;28;20274;-73
2022/07/23 01:19:21;;;;;;;7.53;4.47;;;14.80;99.90;;;;;;5094073;28;20044;-73
2022/07/23 01:21:49;;;;;;;8.03;4.03;;;14.80;99.90;;;;;;5093979;28;20544;-73
2022/07/23 01:24:16;;;;;;;7.53;4.53;;;14.80;99.90;;;;;;5094458;28;20051;-72
2022/07/23 01:26:46;;;;;;;6.43;4.17;;;14.80;99.90;;;;;;5093777;28;20286;-72
2022/07/23 01:29:12;;;;;;;8.27;4.50;;;14.80;99.90;;;;;;5093705;28;20650;-72
2022/07/23 01:31:38;;;;;;;7.43;4.23;;;;;;;;;;5092803;28;20318;-72
2022/07/23 01:34:06;;;;;;;7.20;4.37;;;14.80;99.90;;;;;;5094056;28;20286;-72
2022/07/23 01:36:31;;;;;;;8.00;3.97;;;14.80;99.90;;;;;;5092570;28;20392;-72
2022/07/23 01:38:57;;;;;;;9.17;4.20;;;14.70;99.90;;;;;;5093769;28;20282;-72
2022/07/23 01:41:23;;;;;;;7.30;4.40;;;14.70;99.90;;;;;;5093754;28;20550;-72
2022/07/23 01:43:48;;;;;;;8.13;5.03;;;14.70;99.90;;;;;;5093596;28;20395;-72
2022/07/23 01:46:14;;;;;;;6.43;4.10;;;14.70;99.90;;;;;;5094045;28;20098;-72
2022/07/23 01:48:40;;;;;;;11.30;4.20;;;14.60;99.90;;;;;;5093142;28;20051;-73
2022/07/23 01:51:06;;;;;;;7.13;4.00;;;14.60;99.90;;;;;;5093463;28;20326;-72
2022/07/23 01:53:32;;;;;;;8.93;4.20;;;14.60;99.90;;;;;;5094089;28;20091;-72
2022/07/23 01:55:58;;;;;;;9.37;4.70;;;14.60;99.90;;;;;;5093782;28;20305;-73
2022/07/23 01:58:25;;;;;;;8.53;4.17;;;14.50;99.90;;;;;;5094303;28;20086;-73
2022/07/23 02:00:51;;;;;;;7.90;4.93;;;14.50;99.90;;;;;;5093993;28;20638;-73
2022/07/23 02:03:16;;;;;;;8.20;4.57;;;14.40;99.90;;;;;;5093422;28;20286;-73
2022/07/23 02:05:42;;;;;;;6.73;4.77;;;14.40;99.90;;;;;;5093418;28;20044;-73
2022/07/23 02:08:08;;;;;;;6.90;4.60;;;14.40;99.90;;;;;;5093959;28;20052;-73
2022/07/23 02:10:33;;;;;;;9.03;5.27;;;14.40;99.90;;;;;;5092368;28;20078;-72
2022/07/23 02:12:59;;;;;;;6.53;5.10;;;14.40;99.90;;;;;;5093355;28;20392;-72
2022/07/23 02:15:25;;;;;;;6.20;4.90;;;14.40;99.90;;;;;;5075742;28;20040;-72
2022/07/23 02:17:51;;;;;;;6.20;4.67;;;14.50;99.90;;;;;;5093337;28;20091;-72
2022/07/23 02:20:17;;;;;;;9.33;4.97;;;14.40;99.90;;;;;;5093832;28;20040;-72
2022/07/23 02:22:42;;;;;;;8.90;4.47;;;14.40;99.90;;;;;;5092045;28;20055;-73
2022/07/23 02:25:09;;;;;;;13.20;5.27;;;14.40;99.90;;;;;;5092839;28;20052;-72
2022/07/23 02:27:36;;;;;;;7.27;4.40;;;14.30;99.90;;;;;;5093760;28;20044;-73
2022/07/23 02:30:01;;;;;;;7.93;4.70;;;14.30;99.90;;;;;;5093077;28;20289;-73
2022/07/23 02:32:27;;;;;;;7.97;4.80;;;14.30;99.90;;;;;;5093379;28;20289;-73
2022/07/23 02:34:53;;;;;;;8.63;5.07;;;14.30;99.90;;;;;;5093900;28;20048;-73
2022/07/23 02:37:19;;;;;;;7.37;5.03;;;14.30;99.90;;;;;;5091976;28;20457;-73
2022/07/23 02:39:44;;;;;;;7.20;5.20;;;14.20;99.90;;;;;;5093623;28;20036;-73
2022/07/23 02:42:10;;;;;;;7.53;4.50;;;14.20;99.90;;;;;;5092111;28;20053;-73
2022/07/23 02:44:36;;;;;;;10.00;5.13;;;14.20;99.90;;;;;;5092828;28;20044;-72
2022/07/23 02:47:02;;;;;;;11.03;5.27;;;14.20;99.90;;;;;;5093596;28;20048;-72
2022/07/23 02:49:28;;;;;;;10.33;5.27;;;14.10;99.90;;;;;;5092934;28;20371;-72
2022/07/23 02:51:54;;;;;;;8.23;5.23;;;14.10;99.90;;;;;;5092253;28;20097;-72
2022/07/23 02:54:19;;;;;;;5.77;4.80;;;14.10;99.90;;;;;;5093559;28;20448;-72
2022/07/23 02:56:45;;;;;;;6.70;4.77;;;14.00;99.90;;;;;;5092935;28;20048;-73
2022/07/23 02:59:11;;;;;;;7.53;5.17;;;14.00;99.90;;;;;;5092934;28;20236;-73
2022/07/23 03:01:37;;;;;;;7.97;4.70;;;14.00;99.90;;;;;;5094585;28;20048;-72
2022/07/23 03:04:03;;;;;;;10.43;5.10;;;14.00;99.90;;;;;;5096587;28;20285;-72
2022/07/23 03:06:29;;;;;;;7.10;5.00;;;14.00;99.90;;;;;;5095332;28;20048;-72
2022/07/23 03:08:54;;;;;;;7.03;4.90;;;13.90;99.90;;;;;;5097176;28;20048;-72
2022/07/23 03:11:20;;;;;;;7.90;5.20;;;13.90;99.90;;;;;;5096989;28;20384;-73
2022/07/23 03:13:46;;;;;;;8.67;5.20;;;13.90;99.90;;;;;;5096386;28;20044;-73
2022/07/23 03:16:12;;;;;;;6.50;4.97;;;13.90;99.90;;;;;;5096403;28;20048;-72
2022/07/23 03:18:37;;;;;;;7.57;5.10;;;13.90;99.90;;;;;;5096547;28;20048;-72
2022/07/23 03:21:03;;;;;;;7.00;4.60;;;13.80;99.90;;;;;;5094984;28;20070;-72
2022/07/23 03:23:29;;;;;;;7.90;5.17;;;13.80;99.90;;;;;;5096298;28;20044;-72
2022/07/23 03:25:55;;;;;;;8.10;5.33;;;13.80;99.90;;;;;;5095193;28;20055;-73
2022/07/23 03:28:20;;;;;;;7.00;4.77;;;13.80;99.90;;;;;;5096163;28;20101;-72
2022/07/23 03:30:47;;;;;;;8.63;6.07;;;13.80;99.90;;;;;;5096087;28;20057;-72
2022/07/23 03:33:13;;;;;;;9.83;5.03;;;13.80;99.90;;;;;;5096020;28;20044;-72
2022/07/23 03:35:39;;;;;;;9.03;5.70;;;13.80;99.90;;;;;;5095982;28;20289;-72
2022/07/23 03:38:05;;;;;;;6.80;4.90;;;13.80;99.90;;;;;;5095699;28;20301;-72
2022/07/23 03:40:31;;;;;;;9.27;5.20;;;13.80;99.90;;;;;;5094771;28;20266;-72
2022/07/23 03:42:56;;;;;;;7.70;5.47;;;13.70;99.90;;;;;;5096637;28;20051;-72
2022/07/23 03:45:22;;;;;;;9.40;5.60;;;13.70;99.90;;;;;;5095834;28;20500;-72
2022/07/23 03:47:48;;;;;;;8.00;5.20;;;13.80;99.90;;;;;;5095505;28;20109;-72
2022/07/23 03:50:14;;;;;;;6.73;5.33;;;13.80;99.90;;;;;;5095905;28;20036;-72
2022/07/23 03:52:40;;;;;;;8.63;5.33;;;13.80;99.90;;;;;;5095680;28;20056;-72
2022/07/23 03:55:07;;;;;;;10.07;5.97;;;13.70;99.90;;;;;;5095646;28;20079;-72
2022/07/23 03:57:32;;;;;;;7.00;5.30;;;13.70;99.90;;;;;;5095621;28;20456;-72
2022/07/23 03:59:58;;;;;;;6.17;4.83;;;13.80;99.90;;;;;;5095486;28;20328;-72
2022/07/23 04:02:24;;;;;;;8.97;5.63;;;13.80;99.90;;;;;;5095509;28;20476;-72
2022/07/23 04:04:50;;;;;;;11.13;5.27;;;13.70;99.90;;;;;;5094687;28;20415;-72
2022/07/23 04:07:17;;;;;;;6.33;4.80;;;13.80;99.90;;;;;;5094062;28;20040;-72
2022/07/23 04:09:43;;;;;;;8.80;5.10;;;13.80;99.90;;;;;;5094200;28;20549;-72
2022/07/23 04:12:09;;;;;;;6.87;5.27;;;13.80;99.90;;;;;;5095397;28;20365;-72
2022/07/23 04:14:35;;;;;;;7.33;5.23;;;13.80;99.90;;;;;;5095186;28;20282;-72
2022/07/23 04:17:01;;;;;;;9.60;5.13;;;13.80;99.90;;;;;;5095167;28;20305;-72
2022/07/23 04:19:27;;;;;;;7.57;5.00;;;13.90;99.90;;;;;;5095056;28;20310;-72
2022/07/23 04:21:53;;;;;;;10.50;5.07;;;13.90;99.90;;;;;;5094040;28;20076;-72
2022/07/23 04:24:19;;;;;;;11.13;6.00;;;14.00;99.90;;;;;;5094035;28;20054;-72
2022/07/23 04:26:45;;;;;;;8.30;5.27;;;14.00;99.90;;;;;;5094989;28;20365;-72
2022/07/23 04:29:11;;;;;;;7.83;5.30;;;14.00;99.90;;;;;;5094863;28;20297;-72
2022/07/23 04:31:37;;;;;;;15.03;9.10;;;14.00;99.90;;;;;;5094894;28;20278;-72
2022/07/23 04:34:03;;;;;;;11.33;9.10;;;14.10;99.90;;;;;;5094862;28;20093;-73
2022/07/23 04:36:28;;;;;;;9.27;6.70;;;14.10;99.90;;;;;;5093608;28;20146;-72
2022/07/23 04:38:54;;;;;;;10.30;6.27;;;14.10;99.90;;;;;;5094975;28;20048;-72
2022/07/23 04:41:20;;;;;;;8.13;6.13;;;14.10;99.90;;;;;;5094209;28;20602;-73
2022/07/23 04:43:46;;;;;;;8.80;5.70;;;14.10;99.90;;;;;;5094659;28;20332;-72
2022/07/23 04:46:12;;;;;;;9.17;5.33;;;14.20;99.90;;;;;;5093501;28;20508;-73
2022/07/23 04:48:37;;;;;;;6.90;5.10;;;14.10;99.90;;;;;;5093566;28;20055;-73
2022/07/23 04:51:03;;;;;;;10.53;5.87;;;14.20;99.90;;;;;;5094428;28;20051;-73
2022/07/23 04:53:29;;;;;;;8.77;5.83;;;14.20;99.90;;;;;;5094989;28;20052;-72
2022/07/23 04:55:55;;;;;;;9.43;5.70;;;14.10;99.90;;;;;;5094478;28;20048;-72
2022/07/23 04:58:21;;;;;;;7.03;5.00;;;14.20;99.90;;;;;;5094350;28;20076;-73
2022/07/23 05:00:47;;;;;;;9.37;4.93;;;14.20;99.90;;;;;;5094279;28;20090;-72
2022/07/23 05:03:13;;;;;;;8.93;5.47;;;14.20;99.90;;;;;;5093995;28;20479;-72
2022/07/23 05:05:38;;;;;;;7.60;5.33;;;14.30;99.90;;;;;;5094225;28;20315;-72
2022/07/23 05:08:05;;;;;;;8.87;5.50;;;14.40;99.90;;;;;;5094655;28;20046;-72
2022/07/23 05:10:31;;;;;;;8.30;5.30;;;14.50;99.90;;;;;;5092857;28;20040;-72
2022/07/23 05:12:56;;;;;;;8.27;4.97;;;14.50;99.90;;;;;;5094485;28;20404;-72
2022/07/23 05:15:22;;;;;;;7.60;5.40;;;14.60;99.90;;;;;;5093999;28;20779;-73
2022/07/23 05:17:48;;;;;;;9.63;4.97;;;14.70;99.90;;;;;;5094564;28;20104;-73
2022/07/23 05:20:14;;;;;;;9.47;5.37;;;14.80;99.90;;;;;;5094026;28;20036;-73
2022/07/23 05:22:40;;;;;;;9.00;4.80;;;15.00;99.90;;;;;;5094270;28;20051;-73
2022/07/23 05:25:06;;;;;;;12.93;5.37;;;15.10;99.90;;;;;;5092936;28;20560;-73
2022/07/23 05:27:32;;;;;;;8.30;4.93;;;15.30;99.90;;;;;;5093165;28;20612;-73
2022/07/23 05:29:57;;;;;;;6.77;4.77;;;15.40;99.90;;;;;;5093511;28;20305;-72
2022/07/23 05:32:24;;;;;;;7.30;5.40;;;15.50;99.90;;;;;;5094631;28;20047;-73
2022/07/23 05:34:49;;;;;;;7.83;4.80;;;15.60;99.90;;;;;;5093877;28;20075;-73
2022/07/23 05:37:16;;;;;;;10.20;4.90;;;15.80;99.90;;;;;;5093450;28;20838;-73
2022/07/23 05:39:41;;;;;;;6.40;4.30;;;15.90;99.90;;;;;;5094037;28;20044;-73
2022/07/23 05:42:07;;;;;;;6.87;4.10;;;16.10;99.90;;;;;;5093721;28;20784;-73
2022/07/23 05:44:33;;;;;;;9.83;4.50;;;16.20;99.90;;;;;;5093509;28;20047;-72
2022/07/23 05:46:59;;;;;;;9.40;3.80;;;16.40;99.90;;;;;;5093406;28;20514;-73
2022/07/23 05:49:25;;;;;;;8.70;4.43;;;16.50;99.90;;;;;;5093530;28;20039;-73
2022/07/23 05:51:50;;;;;;;6.73;3.67;;;16.60;99.90;;;;;;5093632;28;20051;-73
2022/07/23 05:54:16;;;;;;;6.03;3.40;;;16.90;99.90;;;;;;5093854;28;20059;-73
2022/07/23 05:56:42;;;;;;;6.93;3.33;;;17.80;99.90;;;;;;5094071;28;20040;-73
2022/07/23 05:59:08;;;;;;;8.93;3.27;;;18.70;99.90;;;;;;5093460;28;20087;-74
2022/07/23 06:01:34;;;;;;;6.53;2.67;;;21.00;99.90;;;;;;5093578;28;20078;-73
2022/07/23 06:03:59;;;;;;;4.60;2.73;;;21.90;99.90;;;;;;5093482;28;20047;-73
2022/07/23 06:06:25;;;;;;;5.30;2.87;;;22.80;99.90;;;;;;5093493;28;20050;-74
2022/07/23 06:08:51;;;;;;;6.70;3.00;;;23.70;95.50;;;;;;5093932;28;20044;-74
2022/07/23 06:11:16;;;;;;;6.00;2.70;;;24.10;99.90;;;;;;5093299;28;20205;-74
2022/07/23 06:13:42;;;;;;;7.37;2.50;;;25.10;80.40;;;;;;5093451;28;20059;-73
2022/07/23 06:16:08;;;;;;;3.43;1.67;;;25.70;82.10;;;;;;5092772;28;20075;-74
2022/07/23 06:18:34;;;;;;;6.00;1.53;;;;;;;;;;5093383;28;20042;-74
2022/07/23 06:21:00;;;;;;;2.57;1.30;;;;;;;;;;5092057;28;20044;-75
2022/07/23 06:23:26;;;;;;;3.00;1.67;;;;;;;;;;5075760;28;20064;-74
2022/07/23 06:25:52;;;;;;;3.50;1.50;;;;;;;;;;5093294;28;20050;-74
2022/07/23 06:28:18;;;;;;;3.53;1.30;;;;;;;;;;5093478;28;20047;-74
2022/07/23 06:30:45;;;;;;;2.43;1.30;;;;;;;;;;5093126;28;20396;-74
2022/07/23 06:33:12;;;;;;;3.07;1.47;;;;;;;;;;5093467;28;20040;-74
2022/07/23 06:35:38;;;;;;;3.23;1.20;;;;;;;;;;5095046;28;20134;-75
2022/07/23 06:38:04;;;;;;;3.23;1.47;;;;;;;;;;5097027;28;20484;-74
2022/07/23 06:40:30;;;;;;;2.40;1.27;;;;;;;;;;5097109;28;20403;-75
2022/07/23 06:42:56;;;;;;;3.97;1.20;;;;;;;;;;5097004;28;20048;-74
2022/07/23 06:45:22;;;;;;;3.03;1.33;;;;;;;;;;5096205;28;20067;-75
2022/07/23 06:47:49;;;;;;;3.80;1.52;;;;;;;;;;5097678;28;20047;-74
2022/07/23 06:50:15;;;;;;;2.80;1.30;;;;;;;;;;5096409;28;20048;-76
2022/07/23 06:52:41;;;;;;;3.08;1.38;;;;;;;;;;5095589;28;20047;-73
2022/07/23 06:55:07;;;;;;;4.88;1.48;;;;;;;;;;5096895;28;20130;-74
2022/07/23 06:57:33;;;;;;;2.70;1.33;;;;;;;;;;5096703;28;20484;-74
2022/07/23 06:59:59;;;;;;;3.80;1.23;;;;;;;;;;5096620;28;20040;-74
2022/07/23 07:02:25;;;;;;;2.15;1.40;;;;;;;;;;5096420;28;20044;-72
2022/07/23 07:04:52;;;;;;;2.45;1.20;;;;;;;;;;5095963;28;20109;-71
2022/07/23 07:07:19;;;;;;;2.25;1.05;;;;;;;;;;5096506;28;20055;-70
2022/07/23 07:09:45;;;;;;;2.50;1.48;;;;;;;;;;5097217;28;20080;-69
2022/07/23 07:12:11;;;;;;;5.07;1.50;;;;;;;;;;5096533;28;20537;-69
2022/07/23 07:14:38;;;;;;;3.00;1.30;;;;;;;;;;5096416;28;20044;-69
2022/07/23 07:17:04;;;;;;;4.40;1.17;;;;;;;;;;5096686;28;20120;-70
2022/07/23 07:19:30;;;;;;;1.52;1.10;;;;;;;;;;5096486;28;20441;-69
2022/07/23 07:21:56;;;;;;;2.28;1.13;;;;;;;;;;5095295;28;20480;-69
2022/07/23 07:24:23;;;;;;;3.92;1.13;;;;;;;;;;5096215;28;20139;-69
2022/07/23 07:26:49;;;;;;;6.70;1.30;;;;;;;;;;5095899;28;20500;-69
2022/07/23 07:29:15;;;;;;;2.38;1.00;;;;;;;;;;5078181;28;20091;-69
2022/07/23 07:31:41;;;;;;;3.92;1.20;;;;;;;;;;5096522;28;20056;-69
2022/07/23 07:34:07;;;;;;;2.45;0.98;;;;;;;;;;5096052;28;20122;-69
2022/07/23 07:36:34;;;;;;;3.92;1.15;;;;;;;;;;5095050;28;20099;-69
2022/07/23 07:39:00;;;;;;;2.22;1.38;;;;;;;;;;5095791;28;20059;-69
2022/07/23 07:41:27;;;;;;;5.13;1.20;;;;;;;;;;5094940;28;20056;-69
2022/07/23 07:43:53;;;;;;;2.72;1.13;;;;;;;;;;5096179;28;20142;-69
2022/07/23 07:46:18;;;;;;;2.00;1.15;;;26.10;45.40;;;;;;5093949;28;20427;-69
2022/07/23 07:48:44;;;;;;;1.80;0.90;;;26.10;45.60;;;;;;5095517;28;20048;-74
2022/07/23 07:51:10;;;;;;;2.42;1.00;;;25.90;47.20;;;;;;5095004;28;20452;-73
2022/07/23 07:53:35;;;;;;;2.83;1.20;;;25.70;47.40;;;;;;5095327;28;20044;-72
2022/07/23 07:56:01;;;;;;;1.77;0.80;;;25.30;46.50;;;;;;5095581;28;20058;-72
2022/07/23 07:58:27;;;;;;;3.13;1.00;;;25.10;47.50;;;;;;5095590;28;20507;-73
2022/07/23 08:00:52;;;;;;;2.97;0.85;;;25.10;47.80;;;;;;5095390;28;20384;-70
2022/07/23 08:03:18;;;;;;;1.67;0.80;;;24.40;50.10;;;;;;5095512;28;20087;-73
2022/07/23 08:05:44;;;;;;;4.00;1.33;;;24.40;49.50;;;;;;5095401;28;20047;-71
2022/07/23 08:08:14;;;;;;;2.20;0.93;;;24.20;49.40;;;;;;5095409;28;20050;-73
2022/07/23 08:10:40;;;;;;;4.47;0.93;;;23.80;49.80;;;;;;5095285;28;20044;-73
2022/07/23 08:13:06;;;;;;;3.47;1.07;;;23.70;50.00;;;;;;5094099;28;20056;-72
2022/07/23 08:15:32;;;;;;;1.60;0.80;;;23.60;50.60;;;;;;5095214;28;20093;-71
2022/07/23 08:17:58;;;;;;;2.40;0.70;;;23.20;51.90;;;;;;5095258;28;20040;-70
2022/07/23 08:20:24;;;;;;;2.73;0.90;;;23.10;52.40;;;;;;5095243;28;20043;-69
2022/07/23 08:22:56;;;;;;;2.07;1.00;;;23.10;53.20;;;;;;5095446;28;20052;-70
2022/07/23 08:25:29;;;;;;;2.33;0.90;;;23.10;53.80;;;;;;5095039;28;20090;-71
2022/07/23 08:27:55;;;;;;;1.97;0.80;;;23.00;54.30;;;;;;5095052;28;20055;-69
2022/07/23 08:30:22;;;;;;;2.00;0.90;;;22.90;54.70;;;;;;5095440;28;20075;-77
2022/07/23 08:32:53;;;;;;;1.73;0.80;;;22.80;55.50;;;;;;5093905;28;20054;-71
2022/07/23 08:35:34;;;;;;;2.47;0.90;;;22.70;56.50;;;;;;5094863;28;20124;-77
2022/07/23 08:38:02;;;;;;;1.13;0.80;;;22.70;57.70;;;;;;5094877;28;20511;-69
2022/07/23 08:40:29;;;;;;;1.77;1.00;;;22.60;57.90;;;;;;5095258;28;20036;-69
2022/07/23 08:42:56;;;;;;;1.40;0.70;;;22.60;58.10;;;;;;5095219;28;20043;-69
2022/07/23 08:45:23;;;;;;;3.23;1.10;;;22.50;58.50;;;;;;5094491;28;20559;-69
2022/07/23 08:47:50;;;;;;;2.90;1.10;;;22.50;58.70;;;;;;5094569;28;20059;-69
2022/07/23 08:50:17;;;;;;;3.30;1.10;;;22.30;58.60;;;;;;5110505;28;20104;-69
2022/07/23 08:52:42;;;;;;;2.10;0.90;;;22.20;59.10;;;;;;5094478;28;20039;-69
2022/07/23 08:55:08;;;;;;;1.50;0.90;;;22.10;60.30;;;;;;5094483;28;20135;-69
2022/07/23 08:57:34;;;;;;;3.20;0.90;;;21.90;60.80;;;;;;5094064;28;20048;-69
2022/07/23 09:00:00;;;;;;;2.37;1.00;;;21.90;61.40;;;;;;5093333;28;20040;-69
2022/07/23 09:02:26;;;;;;;2.53;1.00;;;21.90;62.60;;;;;;5094784;28;20378;-69
2022/07/23 09:04:52;;;;;;;3.13;1.03;;;21.80;64.40;;;;;;5094825;28;20044;-69
2022/07/23 09:07:18;;;;;;;2.30;1.10;;;21.90;65.20;;;;;;5094651;28;20044;-69
2022/07/23 09:09:44;;;;;;;1.67;1.20;;;21.90;64.80;;;;;;5093974;28;20047;-69
2022/07/23 09:12:10;;;;;;;2.53;1.20;;;22.00;64.80;;;;;;5093984;28;20047;-69
2022/07/23 09:14:46;;;;;;;5.07;1.20;;;22.00;65.20;;;;;;5094022;28;20036;-69
2022/07/23 09:17:14;;;;;;;4.07;1.10;;;22.10;65.20;;;;;;5094045;28;20052;-69
2022/07/23 09:19:41;;;;;;;3.83;1.73;;;22.10;66.20;;;;;;5093943;28;20040;-69
2022/07/23 09:22:26;;;;;;;1.93;1.00;;;22.30;66.10;;;;;;5094055;28;20047;-69
2022/07/23 09:25:12;;;;;;;3.50;1.10;;;22.50;65.40;;;;;;5093924;28;20044;-69
2022/07/23 09:28:00;;;;;;;2.20;1.00;;;22.70;65.80;;;;;;5094105;28;20132;-70
2022/07/23 09:30:28;;;;;;;2.87;1.00;;;22.70;65.60;;;;;;5094530;28;20075;-69
2022/07/23 09:33:13;;;;;;;4.23;1.63;;;22.80;66.70;;;;;;5093817;28;20059;-69
2022/07/23 09:35:54;;;;;;;2.90;1.53;;;22.80;66.30;;;;;;5094132;28;20048;-72
2022/07/23 09:38:21;;;;;;;2.80;1.10;;;22.90;66.30;;;;;;5093269;28;20398;-70
2022/07/23 09:41:08;;;;;;;4.63;1.30;;;22.90;65.90;;;;;;5093665;28;20051;-70
2022/07/23 09:43:34;;;;;;;2.40;0.97;;;23.00;66.20;;;;;;5094309;28;20044;-69
2022/07/23 09:46:19;;;;;;;5.10;1.60;;;22.90;66.10;;;;;;5093287;28;20056;-69
2022/07/23 09:48:46;;;;;;;4.13;1.47;;;22.90;65.60;;;;;;5092873;28;20047;-69
2022/07/23 09:51:15;;;;;;;2.07;1.13;;;22.90;67.20;;;;;;5093582;28;20523;-70
2022/07/23 09:53:40;;;;;;;2.80;1.30;;;22.80;67.40;;;;;;5094066;28;20498;-69
2022/07/23 09:56:07;;;;;;;3.47;1.03;;;22.90;67.80;;;;;;5092560;28;20040;-69
2022/07/23 09:58:43;;;;;;;3.03;1.10;;;22.80;67.00;;;;;;5093481;28;20084;-70
2022/07/23 10:01:09;;;;;;;3.63;1.97;;;22.90;68.00;;;;;;5093695;28;20058;-71
2022/07/23 10:03:35;;;;;;;3.83;1.00;;;22.90;67.90;;;;;;5093470;28;20048;-71
2022/07/23 10:06:01;;;;;;;2.40;1.20;;;22.90;68.50;;;;;;5093348;28;20540;-70
2022/07/23 10:08:28;;;;;;;3.47;1.20;;;23.00;68.10;;;;;;5093359;28;20051;-71
2022/07/23 10:10:55;;;;;;;3.80;1.73;;;23.00;68.90;;;;;;5095708;28;20045;-71
2022/07/23 10:15:59;;;;;;;2.70;1.10;;;23.20;67.70;;;;;;5097524;28;20054;-72
2022/07/23 10:18:25;;;;;;;3.70;1.20;;;23.20;68.00;;;;;;5098021;28;20130;-72
2022/07/23 10:20:51;;;;;;;4.60;2.00;;;23.30;67.10;;;;;;5097415;28;20051;-73
2022/07/23 10:23:28;;;;;;;4.00;1.40;;;23.20;67.60;;;;;;5097401;28;20044;-71
2022/07/23 10:26:00;;;;;;;5.47;1.70;;;23.10;69.00;;;;;;5097569;28;20127;-70
2022/07/23 10:28:56;;;;;;;4.30;1.60;;;23.00;69.40;;;;;;5096950;28;20523;-71
2022/07/23 10:31:52;;;;;;;8.00;1.47;;;23.00;71.10;;;;;;5097767;28;20055;-73
2022/07/23 10:34:18;;;;;;;4.60;1.30;;;23.00;74.60;;;;;;5097261;28;20055;-73
2022/07/23 10:37:11;;;;;;;3.63;1.30;;;23.00;73.30;;;;;;5097148;28;20048;-72
2022/07/23 10:39:37;;;;;;;3.33;1.40;;;23.00;72.80;;;;;;5097969;28;20040;-72
2022/07/23 10:42:12;;;;;;;4.43;1.27;;;22.90;72.20;;;;;;5095896;28;20051;-73
2022/07/23 10:44:40;;;;;;;5.47;1.60;;;22.90;73.00;;;;;;5097563;28;20051;-72
2022/07/23 10:49:38;;;;;;;5.17;1.60;;;23.00;73.70;;;;;;5097439;28;20105;-72
2022/07/23 10:52:26;;;;;;;6.27;1.43;;;22.90;73.40;;;;;;5096941;28;20048;-72
2022/07/23 10:54:55;;;;;;;3.20;1.50;;;22.90;74.30;;;;;;5097463;28;20044;-71
2022/07/23 10:57:29;;;;;;;3.00;1.50;;;22.90;74.40;;;;;;5096839;28;20518;-72
2022/07/23 11:00:02;;;;;;;;;;;22.90;74.40;;;;;;5096550;28;20040;-72
2022/07/23 11:02:30;;;;;;;4.63;1.83;;;22.80;75.00;;;;;;5096716;28;19920;-72
2022/07/23 11:05:07;;;;;;;3.17;1.47;;;22.80;76.60;;;;;;5097172;28;20391;-72
2022/07/23 11:07:33;;;;;;;3.40;1.20;;;22.80;76.90;;;;;;5096663;28;20172;-72
2022/07/23 11:09:59;;;;;;;4.73;1.60;;;22.80;77.60;;;;;;5096494;28;20044;-74
2022/07/23 11:12:27;;;;;;;4.67;1.47;;;22.80;76.70;;;;;;5096471;28;20055;-72
2022/07/23 11:15:08;;;;;;;4.63;1.40;;;22.70;75.40;;;;;;5096993;28;20055;-73
2022/07/23 11:17:38;;;;;;;2.67;1.43;;;22.70;79.00;;;;;;5097193;28;20384;-73
2022/07/23 11:20:15;;;;;;;5.53;1.70;;;22.70;79.60;;;;;;5096831;28;20058;-72
2022/07/23 11:22:44;;;;;;;5.03;1.40;;;22.70;78.40;;;;;;5095204;28;20067;-71
2022/07/23 11:25:34;;;;;;;3.13;1.80;;;22.70;79.90;;;;;;5096186;28;20054;-72
2022/07/23 11:28:32;;;;;;;2.47;1.30;;;22.70;77.80;;;;;;5096706;28;20392;-72
2022/07/23 11:30:58;;;;;;;4.13;1.60;;;22.80;79.50;;;;;;5083557;28;20054;-72
2022/07/23 11:33:23;;;;;;;6.57;1.60;;;22.80;79.70;;;;;;5096664;28;20131;-73
2022/07/23 11:36:02;;;;;;;6.50;1.70;;;22.90;78.90;;;;;;5094780;28;20403;-74
2022/07/23 11:38:29;;;;;;;3.30;1.47;;;23.00;78.00;;;;;;5096119;28;20083;-73
2022/07/23 11:40:58;;;;;;;3.53;1.27;;;23.20;78.00;;;;;;5095971;28;20121;-74
2022/07/23 11:43:24;;;;;;;4.83;1.43;;;23.20;75.20;;;;;;5096220;28;20048;-75
2022/07/23 11:45:58;;;;;;;3.33;1.53;;;23.30;75.50;;;;;;5095695;28;20056;-76
2022/07/23 11:48:27;;;;;;;4.50;1.63;;;23.40;74.60;;;;;;5094721;28;20060;-75
2022/07/23 11:50:54;;;;;;;4.10;1.70;;;23.30;76.00;;;;;;5095680;28;20040;-74
2022/07/23 11:53:29;;;;;;;5.43;1.60;;;23.20;74.70;;;;;;5096211;28;20050;-76
2022/07/23 11:56:08;;;;;;;4.60;1.97;;;23.20;77.40;;;;;;5095646;28;20048;-75
2022/07/23 11:58:34;;;;;;;4.73;1.93;;;23.10;77.10;;;;;;5096500;28;20048;-75
2022/07/23 12:01:00;;;;;;;3.53;1.60;;;23.10;75.30;;;;;;5095583;28;20384;-76
2022/07/23 12:03:26;;;;;;;3.93;1.83;;;23.20;76.10;;;;;;5096306;28;20118;-75
2022/07/23 12:05:57;;;;;;;3.37;1.33;;;23.10;74.50;;;;;;5094731;28;20393;-76
2022/07/23 12:08:23;;;;;;;4.60;1.67;;;23.10;76.60;;;;;;5096054;28;20040;-76
2022/07/23 12:10:49;;;;;;;3.30;1.53;;;23.10;76.00;;;;;;5095797;28;20083;-76
2022/07/23 12:13:20;;;;;;;5.80;1.70;;;23.00;75.90;;;;;;5095834;28;20103;-74
2022/07/23 12:15:48;;;;;;;4.03;1.67;;;23.00;75.80;;;;;;5095575;28;20507;-74
2022/07/23 12:18:22;;;;;;;4.90;1.70;;;23.00;76.50;;;;;;5095232;28;20051;-75
2022/07/23 12:20:55;;;;;;;4.70;2.00;;;23.00;76.90;;;;;;5096072;28;20036;-75
2022/07/23 12:23:23;;;;;;;5.50;1.73;;;23.00;78.70;;;;;;5095218;28;20271;-74
2022/07/23 12:25:51;;;;;;;3.67;1.70;;;23.10;79.40;;;;;;5095122;28;20055;-72
2022/07/23 12:28:20;;;;;;;5.93;1.80;;;23.00;78.60;;;;;;5093809;28;20047;-73
2022/07/23 12:30:48;;;;;;;3.83;1.87;;;22.90;79.60;;;;;;5095714;28;20046;-72
2022/07/23 12:33:35;;;;;;;4.43;1.77;;;23.00;80.50;;;;;;5093409;28;20392;-79
2022/07/23 12:36:04;;;;;;;5.40;1.90;;;23.00;79.60;;;;;;5094470;28;20048;-78
2022/07/23 12:38:48;;;;;;;5.47;2.13;;;23.00;80.40;;;;;;5094811;28;20043;-77
2022/07/23 12:41:14;;;;;;;4.35;1.60;;;22.90;81.90;;;;;;5094286;28;20421;-75
2022/07/23 12:43:43;;;;;;;5.03;1.80;;;23.00;82.10;;;;;;5094654;28;20044;-76
2022/07/23 12:46:09;;;;;;;4.33;1.70;;;22.90;82.60;;;;;;5093210;28;20051;-76
2022/07/23 12:48:37;;;;;;;5.80;2.07;;;22.90;81.80;;;;;;5094626;28;20056;-74
2022/07/23 12:51:04;;;;;;;4.20;1.50;;;22.80;82.70;;;;;;5093244;28;20086;-75
2022/07/23 12:53:57;;;;;;;5.43;2.13;;;22.70;84.50;;;;;;5094522;28;20083;-74
2022/07/23 12:56:28;;;;;;;3.90;1.70;;;22.70;84.90;;;;;;5094428;28;20395;-72
2022/07/23 12:58:57;;;;;;;3.43;1.60;;;22.70;84.30;;;;;;5094416;28;20048;-74
2022/07/23 13:01:28;;;;;;;4.03;1.70;;;22.70;83.30;;;;;;5094350;28;20471;-72
2022/07/23 13:04:03;;;;;;;3.03;1.50;;;22.70;84.10;;;;;;5094900;28;20112;-71
2022/07/23 13:06:43;;;;;;;5.70;1.67;;;22.60;84.60;;;;;;5094371;28;20062;-74